Salt Lake City, Utah
Traffic Map
Current Weather Conditions
Salt Lake City, Utah
Few Clouds
Few Clouds
81°
Feels Like: 81°
Wind Chill: 81° Ceiling: Unl
Heat Index: 81° Visibility: 10mi
Dew Point: 58° Wind: 0mph
Humidity: 45% Direction: ° ()
Pressure: 30.11in Gusts: 0mph
Raw Report DataKSLC 061553Z 00000KT 10SM FEW070 FEW120 FEW220 27/14 A3011 RMK AO2 SLP138 T02720144
Traffic Incident Summary
Active as of:
Severity:
Category:
InformationThere was an issue retrieving the traffic information for this location. Please try a different location or try again shortly.
Advertisements
Track Severe Weather on mobile